createdAt,value
2023-07-18T00:00:26.058Z,6.00
2023-07-18T00:02:55.708Z,6.40
2023-07-18T00:05:24.739Z,6.20
2023-07-18T00:07:53.761Z,6.50
2023-07-18T00:10:23.413Z,6.20
2023-07-18T00:12:52.488Z,6.10
2023-07-18T00:15:22.820Z,6.30
2023-07-18T00:17:52.533Z,6.20
2023-07-18T00:20:23.878Z,6.30
2023-07-18T00:22:53.006Z,5.80
2023-07-18T00:25:24.275Z,6.00
2023-07-18T00:27:54.599Z,6.30
2023-07-18T00:30:24.670Z,5.60
2023-07-18T00:32:53.813Z,6.60
2023-07-18T00:35:23.321Z,7.10
2023-07-18T00:37:53.175Z,7.20
2023-07-18T00:40:22.207Z,7.00
2023-07-18T00:42:51.157Z,6.80
2023-07-18T00:45:20.520Z,6.90
2023-07-18T00:47:51.536Z,7.30
2023-07-18T00:50:22.356Z,6.50
2023-07-18T00:52:53.697Z,7.40
2023-07-18T00:55:23.089Z,6.90
2023-07-18T00:57:54.393Z,6.90
2023-07-18T01:00:24.101Z,7.00
2023-07-18T01:02:53.231Z,6.90
2023-07-18T01:05:22.927Z,7.30
2023-07-18T01:07:51.847Z,7.50
2023-07-18T01:10:24.210Z,6.90
2023-07-18T01:12:53.969Z,7.70
2023-07-18T01:15:23.762Z,7.20
2023-07-18T01:17:52.922Z,7.40
2023-07-18T01:20:23.408Z,7.70
2023-07-18T01:22:54.363Z,6.80
2023-07-18T01:25:23.853Z,6.20
2023-07-18T01:27:55.255Z,6.00
2023-07-18T01:30:26.412Z,5.30
2023-07-18T01:32:56.029Z,5.80
2023-07-18T01:35:26.738Z,4.70
2023-07-18T01:37:57.654Z,5.40
2023-07-18T01:40:27.311Z,4.90
2023-07-18T01:42:57.419Z,4.40
2023-07-18T01:45:28.891Z,4.00
2023-07-18T01:47:59.613Z,4.40
2023-07-18T01:50:28.808Z,4.50
2023-07-18T01:52:57.721Z,4.30
2023-07-18T01:55:26.998Z,3.90
2023-07-18T01:57:55.949Z,3.90
2023-07-18T02:00:25.305Z,4.00
2023-07-18T02:02:55.128Z,4.10
2023-07-18T02:05:25.897Z,3.70
2023-07-18T02:07:55.051Z,4.00
2023-07-18T02:10:25.304Z,3.80
2023-07-18T02:12:55.754Z,3.40
2023-07-18T02:15:24.610Z,4.10
2023-07-18T02:17:55.134Z,4.40
2023-07-18T02:20:24.159Z,3.90
2023-07-18T02:22:53.225Z,3.80
2023-07-18T02:25:22.060Z,3.80
2023-07-18T02:27:50.850Z,3.60
2023-07-18T02:30:19.875Z,3.50
2023-07-18T02:32:48.615Z,3.80
2023-07-18T02:35:19.267Z,3.80
2023-07-18T02:37:49.432Z,3.90
2023-07-18T02:40:19.599Z,3.60
2023-07-18T02:42:48.705Z,3.70
2023-07-18T02:45:17.551Z,4.20
2023-07-18T02:47:46.446Z,4.10
2023-07-18T02:50:15.484Z,3.90
2023-07-18T02:52:45.048Z,4.00
2023-07-18T02:55:14.047Z,4.00
2023-07-18T02:57:42.956Z,3.70
2023-07-18T03:00:20.631Z,3.80
2023-07-18T03:02:50.962Z,4.10
2023-07-18T03:05:20.759Z,3.80
2023-07-18T03:07:49.882Z,4.10
2023-07-18T03:10:18.960Z,3.70
2023-07-18T03:12:49.961Z,3.90
2023-07-18T03:15:20.729Z,4.30
2023-07-18T03:17:49.720Z,3.70
2023-07-18T03:20:19.909Z,3.80
2023-07-18T03:22:50.069Z,4.30
2023-07-18T03:25:22.903Z,3.80
2023-07-18T03:27:55.617Z,4.00
2023-07-18T03:30:25.165Z,4.40
2023-07-18T03:32:54.505Z,4.40
2023-07-18T03:35:23.632Z,4.30
2023-07-18T03:37:52.624Z,4.10
2023-07-18T03:40:22.219Z,3.70
2023-07-18T03:42:51.277Z,3.60
2023-07-18T03:45:21.072Z,4.00
2023-07-18T03:47:49.932Z,4.20
2023-07-18T03:50:19.886Z,4.20
2023-07-18T03:52:49.553Z,3.80
2023-07-18T03:55:18.554Z,3.50
2023-07-18T03:57:48.416Z,3.20
2023-07-18T04:00:19.244Z,3.30
2023-07-18T04:02:49.813Z,3.40
2023-07-18T04:05:19.661Z,3.60
2023-07-18T04:07:50.251Z,3.20
2023-07-18T04:10:20.185Z,3.20
2023-07-18T04:12:48.992Z,3.40
2023-07-18T04:15:18.169Z,2.90
2023-07-18T04:17:47.068Z,3.00
2023-07-18T04:20:20.474Z,3.10
2023-07-18T04:22:49.379Z,3.20
2023-07-18T04:25:18.537Z,3.30
2023-07-18T04:27:48.305Z,3.20
2023-07-18T04:30:17.391Z,3.20
2023-07-18T04:32:47.483Z,3.00
2023-07-18T04:35:20.224Z,3.00
2023-07-18T04:37:50.876Z,2.90
2023-07-18T04:40:20.232Z,2.90
2023-07-18T04:42:49.169Z,3.00
2023-07-18T04:45:19.143Z,2.90
2023-07-18T04:47:48.460Z,3.00
2023-07-18T04:50:17.699Z,3.10
2023-07-18T04:52:46.445Z,2.60
2023-07-18T04:55:17.374Z,2.90
2023-07-18T04:57:46.139Z,3.10
2023-07-18T05:00:17.573Z,3.00
2023-07-18T05:02:46.443Z,2.60
2023-07-18T05:05:17.893Z,2.80
2023-07-18T05:07:48.097Z,2.70
2023-07-18T05:10:17.395Z,2.60
2023-07-18T05:12:46.203Z,2.60
2023-07-18T05:15:15.394Z,2.70
2023-07-18T05:17:44.497Z,2.70
2023-07-18T05:20:15.641Z,2.60
2023-07-18T05:22:46.349Z,2.70
2023-07-18T05:25:17.106Z,2.50
2023-07-18T05:27:46.938Z,2.80
2023-07-18T05:30:18.610Z,2.70
2023-07-18T05:32:51.928Z,2.50
2023-07-18T05:35:21.558Z,2.60
2023-07-18T05:37:51.208Z,2.40
2023-07-18T05:40:22.659Z,2.50
2023-07-18T05:42:52.127Z,2.70
2023-07-18T05:45:22.788Z,2.50
2023-07-18T05:47:52.032Z,2.40
2023-07-18T05:50:23.466Z,2.10
2023-07-18T05:52:52.411Z,2.50
2023-07-18T05:55:22.724Z,2.50
2023-07-18T05:57:51.645Z,2.40
2023-07-18T06:00:22.217Z,2.40
2023-07-18T06:02:54.296Z,2.40
2023-07-18T06:05:24.411Z,2.40
2023-07-18T06:07:54.052Z,2.60
2023-07-18T06:10:23.114Z,2.40
2023-07-18T06:12:51.982Z,2.90
2023-07-18T06:15:21.005Z,2.50
2023-07-18T06:17:49.964Z,2.40
2023-07-18T06:20:19.586Z,2.50
2023-07-18T06:22:48.983Z,2.60
2023-07-18T06:25:18.186Z,2.60
2023-07-18T06:27:47.522Z,2.10
2023-07-18T06:30:17.238Z,2.10
2023-07-18T06:32:46.194Z,2.60
2023-07-18T06:37:47.493Z,2.30
2023-07-18T06:40:16.869Z,2.50
2023-07-18T06:42:46.901Z,2.20
2023-07-18T06:45:16.086Z,2.20
2023-07-18T06:47:45.271Z,2.50
2023-07-18T06:50:14.903Z,2.10
2023-07-18T06:52:44.580Z,2.00
2023-07-18T06:55:13.636Z,2.40
2023-07-18T06:57:44.773Z,1.90
2023-07-18T07:00:15.744Z,1.90
2023-07-18T07:02:45.326Z,1.90
2023-07-18T07:05:15.195Z,1.80
2023-07-18T07:07:44.298Z,1.60
2023-07-18T07:10:13.397Z,2.20
2023-07-18T07:12:43.239Z,2.30
2023-07-18T07:15:13.061Z,2.20
2023-07-18T07:17:42.355Z,1.70
2023-07-18T07:20:13.925Z,1.80
2023-07-18T07:22:46.929Z,1.90
2023-07-18T07:25:17.242Z,2.00
2023-07-18T07:27:47.652Z,2.20
2023-07-18T07:30:17.305Z,2.10
2023-07-18T07:32:48.485Z,2.30
2023-07-18T07:35:19.120Z,1.80
2023-07-18T07:37:48.479Z,1.70
2023-07-18T07:40:17.824Z,2.50
2023-07-18T07:42:47.942Z,1.90
2023-07-18T07:45:17.716Z,2.10
2023-07-18T07:47:46.829Z,1.80
2023-07-18T07:50:16.803Z,1.80
2023-07-18T07:52:46.834Z,1.60
2023-07-18T07:55:18.424Z,1.40
2023-07-18T07:57:48.281Z,1.70
2023-07-18T08:00:20.851Z,1.90
2023-07-18T08:02:50.287Z,1.90
2023-07-18T08:05:19.717Z,1.80
2023-07-18T08:07:49.297Z,1.50
2023-07-18T08:10:19.409Z,1.30
2023-07-18T08:12:49.519Z,1.40
2023-07-18T08:15:20.367Z,1.40
2023-07-18T08:17:50.084Z,1.20
2023-07-18T08:20:20.214Z,1.30
2023-07-18T08:22:49.734Z,1.20
2023-07-18T08:25:21.024Z,1.20
2023-07-18T08:27:52.186Z,1.10
2023-07-18T08:30:25.765Z,1.00
2023-07-18T08:32:57.001Z,0.90
2023-07-18T08:35:27.127Z,1.10
2023-07-18T08:38:01.365Z,0.90
2023-07-18T08:40:35.978Z,0.90
2023-07-18T08:43:15.606Z,1.00
2023-07-18T08:45:55.657Z,0.90
2023-07-18T08:48:29.007Z,1.00
2023-07-18T08:51:04.892Z,1.00
2023-07-18T08:53:36.317Z,1.00
2023-07-18T08:56:11.406Z,0.90
2023-07-18T08:58:41.748Z,0.90
2023-07-18T09:01:17.544Z,1.00
2023-07-18T09:03:53.243Z,0.90
2023-07-18T09:06:24.007Z,0.80
2023-07-18T09:08:55.990Z,1.00
2023-07-18T09:11:27.485Z,1.10
2023-07-18T09:13:57.154Z,0.80
2023-07-18T09:16:27.054Z,0.80
2023-07-18T09:18:58.229Z,0.90
2023-07-18T09:21:28.060Z,0.90
2023-07-18T09:23:56.888Z,0.80
2023-07-18T09:26:26.119Z,0.70
2023-07-18T09:29:00.642Z,0.70
2023-07-18T09:31:30.320Z,0.90
2023-07-18T09:34:00.852Z,1.10
2023-07-18T09:36:29.898Z,1.00
2023-07-18T09:39:01.043Z,1.10
2023-07-18T09:41:31.796Z,0.80
2023-07-18T09:44:27.407Z,1.00
2023-07-18T09:46:52.571Z,1.50
2023-07-18T09:49:24.822Z,1.10
2023-07-18T09:52:03.397Z,0.80
2023-07-18T09:54:33.474Z,0.80
2023-07-18T09:57:06.360Z,0.90
2023-07-18T09:59:39.480Z,0.90
2023-07-18T10:02:11.078Z,0.90
2023-07-18T10:04:40.537Z,1.10
2023-07-18T10:07:10.464Z,0.80
2023-07-18T10:09:40.407Z,0.80
2023-07-18T10:12:11.348Z,1.00
2023-07-18T10:14:57.455Z,0.90
2023-07-18T10:17:37.949Z,1.00
2023-07-18T10:20:13.138Z,0.90
2023-07-18T10:22:50.131Z,1.10
2023-07-18T10:25:20.847Z,1.00
2023-07-18T10:27:50.872Z,0.80
2023-07-18T10:30:20.943Z,1.00
2023-07-18T10:32:55.203Z,0.90
2023-07-18T10:35:26.648Z,0.80
2023-07-18T10:37:57.297Z,0.90
2023-07-18T10:40:39.928Z,1.00
2023-07-18T10:43:10.925Z,1.00
2023-07-18T10:45:41.353Z,1.10
2023-07-18T10:48:15.459Z,0.70
2023-07-18T10:50:45.559Z,1.00
2023-07-18T10:53:16.355Z,0.80
2023-07-18T10:55:46.313Z,1.00
2023-07-18T10:58:18.963Z,1.00
2023-07-18T11:00:49.303Z,1.10
2023-07-18T11:03:22.424Z,1.20
2023-07-18T11:05:52.485Z,0.90
2023-07-18T11:08:28.533Z,0.90
2023-07-18T11:11:00.227Z,0.80
2023-07-18T11:13:33.540Z,0.90
2023-07-18T11:16:07.537Z,0.80
2023-07-18T11:21:07.979Z,0.90
2023-07-18T11:23:38.839Z,1.10
2023-07-18T11:26:13.588Z,0.80
2023-07-18T11:28:44.385Z,1.00
2023-07-18T11:34:01.316Z,1.00
2023-07-18T11:36:32.148Z,1.00
2023-07-18T11:39:01.979Z,0.90
2023-07-18T11:41:40.552Z,0.80
2023-07-18T11:44:10.772Z,0.80
2023-07-18T11:46:41.717Z,1.00
2023-07-18T11:49:13.187Z,0.90
2023-07-18T11:51:44.606Z,1.10
2023-07-18T11:54:13.741Z,1.00
2023-07-18T11:56:42.917Z,0.90
2023-07-18T11:59:11.749Z,0.90
2023-07-18T12:01:40.755Z,0.90
2023-07-18T12:04:14.793Z,0.90
2023-07-18T12:06:44.091Z,0.80
2023-07-18T12:09:12.963Z,1.00
2023-07-18T12:11:43.613Z,1.20
2023-07-18T12:14:12.595Z,0.90
2023-07-18T12:16:41.684Z,0.80
2023-07-18T12:19:10.755Z,1.00
2023-07-18T12:21:40.112Z,0.90
2023-07-18T12:24:09.663Z,0.80
2023-07-18T12:26:38.693Z,0.80
2023-07-18T12:29:07.641Z,0.80
2023-07-18T12:31:37.372Z,0.80
2023-07-18T12:34:06.471Z,0.80
2023-07-18T12:36:35.431Z,0.90
2023-07-18T12:39:04.512Z,0.90
2023-07-18T12:41:33.625Z,0.80
2023-07-18T12:44:02.511Z,0.80
2023-07-18T12:46:31.668Z,0.70
2023-07-18T12:51:32.902Z,0.90
2023-07-18T12:54:01.981Z,0.90
2023-07-18T12:56:31.674Z,0.90
2023-07-18T12:59:00.728Z,0.60
2023-07-18T13:01:29.932Z,0.70
2023-07-18T13:03:59.192Z,0.70
2023-07-18T13:06:27.966Z,0.90
2023-07-18T13:08:58.715Z,0.80
2023-07-18T13:11:27.757Z,0.80
2023-07-18T13:13:57.105Z,0.70
2023-07-18T13:16:26.145Z,0.70
2023-07-18T13:18:55.179Z,0.70
2023-07-18T13:21:30.477Z,0.60
2023-07-18T13:24:00.949Z,0.70
2023-07-18T13:26:39.547Z,0.80
2023-07-18T13:29:09.630Z,0.60
2023-07-18T13:31:39.209Z,0.90
2023-07-18T13:34:11.198Z,0.70
2023-07-18T13:36:42.245Z,0.70
2023-07-18T13:39:15.341Z,0.80
2023-07-18T13:41:44.709Z,1.20
2023-07-18T13:44:13.848Z,0.70
2023-07-18T13:46:43.533Z,0.70
2023-07-18T13:49:12.789Z,0.70
2023-07-18T13:51:41.792Z,0.80
2023-07-18T13:54:10.985Z,0.80
2023-07-18T13:56:40.300Z,0.80
2023-07-18T13:59:09.465Z,0.90
2023-07-18T14:01:38.931Z,0.90
2023-07-18T14:04:08.306Z,0.70
2023-07-18T14:06:37.256Z,0.90
2023-07-18T14:09:06.274Z,0.90
2023-07-18T14:11:35.561Z,0.90
2023-07-18T14:14:04.644Z,0.80
2023-07-18T14:16:33.762Z,1.10
2023-07-18T14:19:02.901Z,0.70
2023-07-18T14:21:32.042Z,0.70
2023-07-18T14:24:04.198Z,0.80
2023-07-18T14:26:33.309Z,0.90
2023-07-18T14:29:02.226Z,1.00
2023-07-18T14:31:31.359Z,0.90
2023-07-18T14:34:06.878Z,0.90
2023-07-18T14:36:36.573Z,0.80
2023-07-18T14:39:05.694Z,1.10
2023-07-18T14:41:35.337Z,0.90
2023-07-18T14:44:05.699Z,0.80
2023-07-18T14:46:34.664Z,0.70
2023-07-18T14:49:03.834Z,0.80
2023-07-18T14:51:33.078Z,0.80
2023-07-18T14:54:01.903Z,0.60
2023-07-18T14:56:32.483Z,0.70
2023-07-18T14:59:01.575Z,0.80
2023-07-18T15:01:33.869Z,0.80
2023-07-18T15:04:02.738Z,1.00
2023-07-18T15:06:31.923Z,0.70
2023-07-18T15:09:00.736Z,0.60
2023-07-18T15:11:29.917Z,0.80
2023-07-18T15:13:58.943Z,0.80
2023-07-18T15:16:29.065Z,0.90
2023-07-18T15:18:58.243Z,0.90
2023-07-18T15:21:29.250Z,1.10
2023-07-18T15:23:58.319Z,0.60
2023-07-18T15:26:27.538Z,0.70
2023-07-18T15:28:58.676Z,1.10
2023-07-18T15:31:27.694Z,0.70
2023-07-18T15:33:57.021Z,0.80
2023-07-18T15:36:26.365Z,0.80
2023-07-18T15:38:55.222Z,0.80
2023-07-18T15:41:24.664Z,0.90
2023-07-18T15:43:54.054Z,0.70
2023-07-18T15:46:23.894Z,0.90
2023-07-18T15:48:53.257Z,0.80
2023-07-18T15:51:22.211Z,0.70
2023-07-18T15:53:51.400Z,0.80
2023-07-18T15:56:20.647Z,1.00
2023-07-18T15:58:50.128Z,0.70
2023-07-18T16:01:19.239Z,0.70
2023-07-18T16:03:48.603Z,0.70
2023-07-18T16:06:18.162Z,1.00
2023-07-18T16:11:23.894Z,0.90
2023-07-18T16:13:52.994Z,1.00
2023-07-18T16:16:24.910Z,1.20
2023-07-18T16:18:57.306Z,1.10
2023-07-18T16:21:27.002Z,0.90
2023-07-18T16:23:56.036Z,1.00
2023-07-18T16:26:27.330Z,1.10
2023-07-18T16:28:56.703Z,1.00
2023-07-18T16:31:27.002Z,0.80
2023-07-18T16:33:56.582Z,1.00
2023-07-18T16:36:26.338Z,0.90
2023-07-18T16:39:07.193Z,0.80
2023-07-18T16:41:40.099Z,1.10
2023-07-18T16:44:11.404Z,0.70
2023-07-18T16:46:42.339Z,0.90
2023-07-18T16:49:11.738Z,0.90
2023-07-18T16:51:41.534Z,1.00
2023-07-18T16:54:11.039Z,1.00
2023-07-18T16:56:40.870Z,0.90
2023-07-18T16:59:10.499Z,1.00
2023-07-18T17:01:40.567Z,1.10
2023-07-18T17:04:11.388Z,0.90
2023-07-18T17:06:42.453Z,0.70
2023-07-18T17:09:13.348Z,1.10
2023-07-18T17:11:45.532Z,1.00
2023-07-18T17:14:15.373Z,1.00
2023-07-18T17:16:47.680Z,0.90
2023-07-18T17:19:20.204Z,1.10
2023-07-18T17:21:50.349Z,1.00
2023-07-18T17:24:21.536Z,1.10
2023-07-18T17:26:53.022Z,0.90
2023-07-18T17:29:24.863Z,1.20
2023-07-18T17:31:56.677Z,0.80
2023-07-18T17:34:28.318Z,1.20
2023-07-18T17:37:01.466Z,1.20
2023-07-18T17:39:33.569Z,1.30
2023-07-18T17:42:05.157Z,1.10
2023-07-18T17:44:37.187Z,1.20
2023-07-18T17:47:07.675Z,1.00
2023-07-18T17:49:37.714Z,1.30
2023-07-18T17:52:09.537Z,1.20
2023-07-18T17:54:40.995Z,1.00
2023-07-18T17:57:10.885Z,1.30
2023-07-18T17:59:42.658Z,1.20
2023-07-18T18:02:14.755Z,1.10
2023-07-18T18:04:45.044Z,1.50
2023-07-18T18:07:15.714Z,1.20
2023-07-18T18:09:49.020Z,1.10
2023-07-18T18:12:21.707Z,1.30
2023-07-18T18:14:53.263Z,1.50
2023-07-18T18:17:25.098Z,1.80
2023-07-18T18:19:55.505Z,1.20
2023-07-18T18:22:25.796Z,1.60
2023-07-18T18:24:58.578Z,1.50
2023-07-18T18:27:38.682Z,1.40
2023-07-18T18:30:15.478Z,1.30
2023-07-18T18:32:45.683Z,1.30
2023-07-18T18:35:27.780Z,1.30
2023-07-18T18:37:59.299Z,1.40
2023-07-18T18:40:29.865Z,1.60
2023-07-18T18:43:08.566Z,1.50
2023-07-18T18:48:40.301Z,1.30
2023-07-18T18:51:27.783Z,1.40
2023-07-18T18:54:14.227Z,1.50
2023-07-18T18:56:46.091Z,1.50
2023-07-18T18:59:24.930Z,1.70
2023-07-18T19:02:01.036Z,1.70
2023-07-18T19:04:38.609Z,1.70
2023-07-18T19:07:16.518Z,1.60
2023-07-18T19:10:03.654Z,2.20
2023-07-18T19:12:33.888Z,1.70
2023-07-18T19:15:06.335Z,2.00
2023-07-18T19:17:39.209Z,2.00
2023-07-18T19:20:12.662Z,2.10
2023-07-18T19:22:44.147Z,2.40
2023-07-18T19:25:15.241Z,2.50
2023-07-18T19:27:47.489Z,2.20
2023-07-18T19:30:17.862Z,2.10
2023-07-18T19:32:48.984Z,1.70
2023-07-18T19:35:21.888Z,1.90
2023-07-18T19:37:53.188Z,1.90
2023-07-18T19:40:27.786Z,2.00
2023-07-18T19:43:00.132Z,1.80
2023-07-18T19:45:30.958Z,2.10
2023-07-18T19:48:08.161Z,2.30
2023-07-18T19:50:41.876Z,2.30
2023-07-18T19:53:14.509Z,2.50
2023-07-18T19:55:45.481Z,2.30
2023-07-18T19:58:16.659Z,2.10
2023-07-18T20:00:47.587Z,2.30
2023-07-18T20:03:18.533Z,2.30
2023-07-18T20:05:48.756Z,2.40
2023-07-18T20:08:18.868Z,2.40
2023-07-18T20:10:47.934Z,2.60
2023-07-18T20:13:17.669Z,2.40
2023-07-18T20:15:47.776Z,3.50
2023-07-18T20:18:17.563Z,3.10
2023-07-18T20:20:47.152Z,2.70
2023-07-18T20:23:16.609Z,2.80
2023-07-18T20:25:45.964Z,3.40
2023-07-18T20:28:15.055Z,3.40
2023-07-18T20:30:44.540Z,3.10
2023-07-18T20:33:14.562Z,2.70
2023-07-18T20:35:44.985Z,2.90
2023-07-18T20:38:15.789Z,3.10
2023-07-18T20:40:46.840Z,3.30
2023-07-18T20:43:17.723Z,4.10
2023-07-18T20:46:03.378Z,3.20
2023-07-18T20:48:34.543Z,3.60
2023-07-18T20:51:06.692Z,3.20
2023-07-18T20:53:37.707Z,3.60
2023-07-18T20:56:10.088Z,3.40
2023-07-18T20:58:41.592Z,3.60
2023-07-18T21:01:11.018Z,2.90
2023-07-18T21:03:40.132Z,3.10
2023-07-18T21:06:09.460Z,3.10
2023-07-18T21:08:38.858Z,3.30
2023-07-18T21:11:08.513Z,3.50
2023-07-18T21:13:38.963Z,3.40
2023-07-18T21:16:08.564Z,3.10
2023-07-18T21:18:37.552Z,3.60
2023-07-18T21:21:07.095Z,3.50
2023-07-18T21:23:35.876Z,3.50
2023-07-18T21:26:04.751Z,3.00
2023-07-18T21:28:33.647Z,3.30
2023-07-18T21:31:02.580Z,2.70
2023-07-18T21:33:31.628Z,2.90
2023-07-18T21:36:00.572Z,2.60
2023-07-18T21:38:29.574Z,2.70
2023-07-18T21:40:59.538Z,3.00
2023-07-18T21:43:28.535Z,2.80
2023-07-18T21:45:57.738Z,2.50
2023-07-18T21:48:26.710Z,3.20
2023-07-18T21:50:55.606Z,2.70
2023-07-18T21:53:24.640Z,2.70
2023-07-18T21:55:54.024Z,3.00
2023-07-18T21:58:23.009Z,2.60
2023-07-18T22:00:52.186Z,2.70
2023-07-18T22:03:20.992Z,2.90
2023-07-18T22:05:50.951Z,2.40
2023-07-18T22:08:19.972Z,2.60
2023-07-18T22:10:49.032Z,2.80
2023-07-18T22:13:18.274Z,2.60
2023-07-18T22:15:48.013Z,2.60
2023-07-18T22:18:26.619Z,2.50
2023-07-18T22:20:57.123Z,2.60
2023-07-18T22:23:25.771Z,2.60
2023-07-18T22:26:12.832Z,2.60
2023-07-18T22:28:43.484Z,2.50
2023-07-18T22:31:13.164Z,3.00
2023-07-18T22:33:41.990Z,2.90
2023-07-18T22:36:10.901Z,3.00
2023-07-18T22:38:40.193Z,2.90
2023-07-18T22:41:09.095Z,2.70
2023-07-18T22:43:38.355Z,2.90
2023-07-18T22:46:07.184Z,2.70
2023-07-18T22:48:36.091Z,2.90
2023-07-18T22:51:04.838Z,2.80
2023-07-18T22:53:34.101Z,2.70
2023-07-18T22:56:02.892Z,2.30
2023-07-18T22:58:31.932Z,2.70
2023-07-18T23:01:00.879Z,3.00
2023-07-18T23:03:29.805Z,2.80
2023-07-18T23:05:59.145Z,2.70
2023-07-18T23:08:27.973Z,2.90
2023-07-18T23:10:57.051Z,2.80
2023-07-18T23:13:25.965Z,2.70
2023-07-18T23:15:54.713Z,3.00
2023-07-18T23:18:24.254Z,3.20
2023-07-18T23:20:53.115Z,3.10
2023-07-18T23:23:21.923Z,3.00
2023-07-18T23:25:50.837Z,3.20
2023-07-18T23:28:20.978Z,2.70
2023-07-18T23:30:50.593Z,2.70
2023-07-18T23:33:19.523Z,3.00
2023-07-18T23:35:49.554Z,3.10
2023-07-18T23:38:19.486Z,3.20
2023-07-18T23:40:48.986Z,3.00
2023-07-18T23:43:18.919Z,3.20
2023-07-18T23:45:48.057Z,3.00
2023-07-18T23:48:17.075Z,3.30
2023-07-18T23:50:46.587Z,3.40
2023-07-18T23:53:16.154Z,3.10
2023-07-18T23:55:45.433Z,3.30
2023-07-18T23:58:15.200Z,3.50
